« Back
NWS Peachtree City, Ga » Text Product » CSG Terminal Aerodrome Forecast


Printer-friendly Version
Current Version              Previous Versions:   1  2  3  4  5  6  7  8  9  

Terminal Aerodrome Forecast

108
FTUS42 KFFC 282335
TAFCSG
TAF
KCSG 282335Z 2900/2924 27010G15KT P6SM FEW060
     FM290600 26006KT P6SM SCT250
     FM291100 26005KT P6SM SCT100
     FM291500 28010KT P6SM SCT040=

USA.gov is the U.S. government's official web portal to all federal, state and local government web resources and services.